sensor_id;sensor_type;location;lat;lon;timestamp;temperature;humidity
43581;DHT22;29175;51.030;4.606;2022-12-29T00:00:50;12.50;99.90
43581;DHT22;29175;51.030;4.606;2022-12-29T00:03:17;12.50;99.90
43581;DHT22;29175;51.030;4.606;2022-12-29T00:05:42;12.60;99.90
43581;DHT22;29175;51.030;4.606;2022-12-29T00:08:08;12.70;99.90
43581;DHT22;29175;51.030;4.606;2022-12-29T00:10:34;12.50;99.90
43581;DHT22;29175;51.030;4.606;2022-12-29T00:13:00;12.70;99.90
43581;DHT22;29175;51.030;4.606;2022-12-29T00:15:44;12.70;99.90
43581;DHT22;29175;51.030;4.606;2022-12-29T00:18:10;12.80;99.90
43581;DHT22;29175;51.030;4.606;2022-12-29T00:20:37;12.90;99.90
43581;DHT22;29175;51.030;4.606;2022-12-29T00:23:21;12.80;99.90
43581;DHT22;29175;51.030;4.606;2022-12-29T00:26:14;12.80;99.90
43581;DHT22;29175;51.030;4.606;2022-12-29T00:29:00;12.80;99.90
43581;DHT22;29175;51.030;4.606;2022-12-29T00:31:44;13.20;99.90
43581;DHT22;29175;51.030;4.606;2022-12-29T00:34:28;13.00;99.90
43581;DHT22;29175;51.030;4.606;2022-12-29T00:37:12;12.90;99.90
43581;DHT22;29175;51.030;4.606;2022-12-29T00:39:38;13.00;99.90
43581;DHT22;29175;51.030;4.606;2022-12-29T00:42:22;13.10;99.90
43581;DHT22;29175;51.030;4.606;2022-12-29T00:45:06;13.10;99.90
43581;DHT22;29175;51.030;4.606;2022-12-29T00:47:32;13.00;99.90
43581;DHT22;29175;51.030;4.606;2022-12-29T00:49:57;13.20;99.90
43581;DHT22;29175;51.030;4.606;2022-12-29T00:52:23;13.20;99.90
43581;DHT22;29175;51.030;4.606;2022-12-29T00:54:49;13.10;99.90
43581;DHT22;29175;51.030;4.606;2022-12-29T00:57:14;13.40;99.90
43581;DHT22;29175;51.030;4.606;2022-12-29T00:59:41;13.20;99.90
43581;DHT22;29175;51.030;4.606;2022-12-29T01:02:08;13.40;99.90
43581;DHT22;29175;51.030;4.606;2022-12-29T01:04:34;13.30;99.90
43581;DHT22;29175;51.030;4.606;2022-12-29T01:07:00;13.30;99.90
43581;DHT22;29175;51.030;4.606;2022-12-29T01:09:26;13.50;99.90
43581;DHT22;29175;51.030;4.606;2022-12-29T01:12:11;13.70;99.90
43581;DHT22;29175;51.030;4.606;2022-12-29T01:14:37;13.90;99.90
43581;DHT22;29175;51.030;4.606;2022-12-29T01:17:03;13.90;99.90
43581;DHT22;29175;51.030;4.606;2022-12-29T01:19:29;13.80;99.90
43581;DHT22;29175;51.030;4.606;2022-12-29T01:21:55;13.50;99.90
43581;DHT22;29175;51.030;4.606;2022-12-29T01:24:21;13.40;99.90
43581;DHT22;29175;51.030;4.606;2022-12-29T01:26:48;13.50;99.90
43581;DHT22;29175;51.030;4.606;2022-12-29T01:29:14;13.30;99.90
43581;DHT22;29175;51.030;4.606;2022-12-29T01:31:40;13.40;99.90
43581;DHT22;29175;51.030;4.606;2022-12-29T01:34:05;13.60;99.90
43581;DHT22;29175;51.030;4.606;2022-12-29T01:36:31;13.30;99.90
43581;DHT22;29175;51.030;4.606;2022-12-29T01:38:57;13.30;99.90
43581;DHT22;29175;51.030;4.606;2022-12-29T01:41:23;13.40;99.90
43581;DHT22;29175;51.030;4.606;2022-12-29T01:43:54;13.50;99.90
43581;DHT22;29175;51.030;4.606;2022-12-29T01:48:53;13.50;99.90
43581;DHT22;29175;51.030;4.606;2022-12-29T01:51:23;13.50;99.90
43581;DHT22;29175;51.030;4.606;2022-12-29T01:53:51;13.50;99.90
43581;DHT22;29175;51.030;4.606;2022-12-29T01:56:18;13.30;99.90
43581;DHT22;29175;51.030;4.606;2022-12-29T01:58:49;13.10;99.90
43581;DHT22;29175;51.030;4.606;2022-12-29T02:01:20;13.40;99.90
43581;DHT22;29175;51.030;4.606;2022-12-29T02:03:47;13.10;99.90
43581;DHT22;29175;51.030;4.606;2022-12-29T02:06:23;12.80;99.90
43581;DHT22;29175;51.030;4.606;2022-12-29T02:08:52;12.90;99.90
43581;DHT22;29175;51.030;4.606;2022-12-29T02:11:20;13.10;99.90
43581;DHT22;29175;51.030;4.606;2022-12-29T02:13:47;13.20;99.90
43581;DHT22;29175;51.030;4.606;2022-12-29T02:22:07;13.10;99.90
43581;DHT22;29175;51.030;4.606;2022-12-29T02:28:25;12.60;99.90
43581;DHT22;29175;51.030;4.606;2022-12-29T02:41:34;12.80;99.90
43581;DHT22;29175;51.030;4.606;2022-12-29T02:46:53;12.70;99.90
43581;DHT22;29175;51.030;4.606;2022-12-29T02:49:33;12.40;99.90
43581;DHT22;29175;51.030;4.606;2022-12-29T02:52:11;12.30;99.90
43581;DHT22;29175;51.030;4.606;2022-12-29T02:54:40;12.00;99.90
43581;DHT22;29175;51.030;4.606;2022-12-29T02:57:15;12.00;99.90
43581;DHT22;29175;51.030;4.606;2022-12-29T02:59:45;12.10;99.90
43581;DHT22;29175;51.030;4.606;2022-12-29T03:05:04;12.10;99.90
43581;DHT22;29175;51.030;4.606;2022-12-29T03:13:02;11.90;99.90
43581;DHT22;29175;51.030;4.606;2022-12-29T03:16:21;11.80;99.90
43581;DHT22;29175;51.030;4.606;2022-12-29T03:19:00;12.00;99.90
43581;DHT22;29175;51.030;4.606;2022-12-29T03:24:57;12.30;99.90
43581;DHT22;29175;51.030;4.606;2022-12-29T03:27:31;12.00;99.90
43581;DHT22;29175;51.030;4.606;2022-12-29T03:30:02;11.80;99.90
43581;DHT22;29175;51.030;4.606;2022-12-29T03:32:37;11.80;99.90
43581;DHT22;29175;51.030;4.606;2022-12-29T03:35:07;11.90;99.90
43581;DHT22;29175;51.030;4.606;2022-12-29T03:37:40;12.00;99.90
43581;DHT22;29175;51.030;4.606;2022-12-29T03:40:08;12.00;99.90
43581;DHT22;29175;51.030;4.606;2022-12-29T03:42:35;11.70;99.90
43581;DHT22;29175;51.030;4.606;2022-12-29T03:45:01;11.50;99.90
43581;DHT22;29175;51.030;4.606;2022-12-29T03:47:29;11.60;99.90
43581;DHT22;29175;51.030;4.606;2022-12-29T03:49:55;11.70;99.90
43581;DHT22;29175;51.030;4.606;2022-12-29T03:52:20;11.50;99.90
43581;DHT22;29175;51.030;4.606;2022-12-29T03:54:46;11.70;99.90
43581;DHT22;29175;51.030;4.606;2022-12-29T03:57:13;11.60;99.90
43581;DHT22;29175;51.030;4.606;2022-12-29T03:59:39;11.70;99.90
43581;DHT22;29175;51.030;4.606;2022-12-29T04:02:05;12.00;99.90
43581;DHT22;29175;51.030;4.606;2022-12-29T04:04:31;11.90;99.90
43581;DHT22;29175;51.030;4.606;2022-12-29T04:06:57;12.10;99.90
43581;DHT22;29175;51.030;4.606;2022-12-29T04:09:22;12.20;99.90
43581;DHT22;29175;51.030;4.606;2022-12-29T04:11:48;12.20;99.90
43581;DHT22;29175;51.030;4.606;2022-12-29T04:14:14;12.40;99.90
43581;DHT22;29175;51.030;4.606;2022-12-29T04:16:40;11.90;99.90
43581;DHT22;29175;51.030;4.606;2022-12-29T04:19:06;12.00;99.90
43581;DHT22;29175;51.030;4.606;2022-12-29T04:21:32;11.80;99.90
43581;DHT22;29175;51.030;4.606;2022-12-29T04:23:59;12.00;99.90
43581;DHT22;29175;51.030;4.606;2022-12-29T04:26:25;11.80;99.90
43581;DHT22;29175;51.030;4.606;2022-12-29T04:28:51;11.70;99.90
43581;DHT22;29175;51.030;4.606;2022-12-29T04:31:17;11.80;99.90
43581;DHT22;29175;51.030;4.606;2022-12-29T04:33:42;12.00;99.90
43581;DHT22;29175;51.030;4.606;2022-12-29T04:36:08;11.90;99.90
43581;DHT22;29175;51.030;4.606;2022-12-29T04:38:34;11.70;99.90
43581;DHT22;29175;51.030;4.606;2022-12-29T04:41:02;11.80;99.90
43581;DHT22;29175;51.030;4.606;2022-12-29T04:43:28;11.90;99.90
43581;DHT22;29175;51.030;4.606;2022-12-29T04:45:54;11.90;99.90
43581;DHT22;29175;51.030;4.606;2022-12-29T04:48:19;12.10;99.90
43581;DHT22;29175;51.030;4.606;2022-12-29T04:50:47;12.20;99.90
43581;DHT22;29175;51.030;4.606;2022-12-29T04:53:14;12.30;99.90
43581;DHT22;29175;51.030;4.606;2022-12-29T04:55:42;12.20;99.90
43581;DHT22;29175;51.030;4.606;2022-12-29T04:58:08;12.30;99.90
43581;DHT22;29175;51.030;4.606;2022-12-29T05:00:34;12.30;99.90
43581;DHT22;29175;51.030;4.606;2022-12-29T05:03:00;12.00;99.90
43581;DHT22;29175;51.030;4.606;2022-12-29T05:05:26;12.00;99.90
43581;DHT22;29175;51.030;4.606;2022-12-29T05:07:51;12.10;99.90
43581;DHT22;29175;51.030;4.606;2022-12-29T05:10:17;12.10;99.90
43581;DHT22;29175;51.030;4.606;2022-12-29T05:12:43;12.20;99.90
43581;DHT22;29175;51.030;4.606;2022-12-29T05:15:09;12.20;99.90
43581;DHT22;29175;51.030;4.606;2022-12-29T05:17:35;12.10;99.90
43581;DHT22;29175;51.030;4.606;2022-12-29T05:20:02;12.10;99.90
43581;DHT22;29175;51.030;4.606;2022-12-29T05:22:28;12.20;99.90
43581;DHT22;29175;51.030;4.606;2022-12-29T05:24:54;12.30;99.90
43581;DHT22;29175;51.030;4.606;2022-12-29T05:27:19;12.20;99.90
43581;DHT22;29175;51.030;4.606;2022-12-29T05:29:45;12.40;99.90
43581;DHT22;29175;51.030;4.606;2022-12-29T05:32:10;12.50;99.90
43581;DHT22;29175;51.030;4.606;2022-12-29T05:34:36;12.30;99.90
43581;DHT22;29175;51.030;4.606;2022-12-29T05:37:02;12.10;99.90
43581;DHT22;29175;51.030;4.606;2022-12-29T05:39:28;12.10;99.90
43581;DHT22;29175;51.030;4.606;2022-12-29T05:41:54;12.00;99.90
43581;DHT22;29175;51.030;4.606;2022-12-29T05:44:20;12.20;99.90
43581;DHT22;29175;51.030;4.606;2022-12-29T05:46:45;12.40;99.90
43581;DHT22;29175;51.030;4.606;2022-12-29T05:49:11;12.20;99.90
43581;DHT22;29175;51.030;4.606;2022-12-29T05:51:37;12.10;99.90
43581;DHT22;29175;51.030;4.606;2022-12-29T05:54:02;12.20;99.90
43581;DHT22;29175;51.030;4.606;2022-12-29T05:56:28;12.50;99.90
43581;DHT22;29175;51.030;4.606;2022-12-29T05:58:54;12.70;99.90
43581;DHT22;29175;51.030;4.606;2022-12-29T06:01:19;12.50;99.90
43581;DHT22;29175;51.030;4.606;2022-12-29T06:03:45;12.30;99.90
43581;DHT22;29175;51.030;4.606;2022-12-29T06:06:11;12.10;99.90
43581;DHT22;29175;51.030;4.606;2022-12-29T06:08:37;12.20;99.90
43581;DHT22;29175;51.030;4.606;2022-12-29T06:11:02;12.30;99.90
43581;DHT22;29175;51.030;4.606;2022-12-29T06:13:28;12.30;99.90
43581;DHT22;29175;51.030;4.606;2022-12-29T06:15:54;12.40;99.90
43581;DHT22;29175;51.030;4.606;2022-12-29T06:18:19;12.30;99.90
43581;DHT22;29175;51.030;4.606;2022-12-29T06:20:45;12.40;99.90
43581;DHT22;29175;51.030;4.606;2022-12-29T06:23:11;12.60;99.90
43581;DHT22;29175;51.030;4.606;2022-12-29T06:25:38;12.30;99.90
43581;DHT22;29175;51.030;4.606;2022-12-29T06:28:04;12.40;99.90
43581;DHT22;29175;51.030;4.606;2022-12-29T06:30:33;12.20;99.90
43581;DHT22;29175;51.030;4.606;2022-12-29T06:32:59;12.60;99.90
43581;DHT22;29175;51.030;4.606;2022-12-29T06:35:25;12.30;99.90
43581;DHT22;29175;51.030;4.606;2022-12-29T06:37:51;12.30;99.90
43581;DHT22;29175;51.030;4.606;2022-12-29T06:40:17;12.50;99.90
43581;DHT22;29175;51.030;4.606;2022-12-29T06:42:43;12.60;99.90
43581;DHT22;29175;51.030;4.606;2022-12-29T06:45:09;12.80;99.90
43581;DHT22;29175;51.030;4.606;2022-12-29T06:47:35;12.90;99.90
43581;DHT22;29175;51.030;4.606;2022-12-29T06:50:01;12.90;99.90
43581;DHT22;29175;51.030;4.606;2022-12-29T06:52:27;12.90;99.90
43581;DHT22;29175;51.030;4.606;2022-12-29T06:54:54;12.70;99.90
43581;DHT22;29175;51.030;4.606;2022-12-29T06:57:20;12.40;99.90
43581;DHT22;29175;51.030;4.606;2022-12-29T06:59:46;12.60;99.90
43581;DHT22;29175;51.030;4.606;2022-12-29T07:02:12;12.50;99.90
43581;DHT22;29175;51.030;4.606;2022-12-29T07:04:43;12.30;99.90
43581;DHT22;29175;51.030;4.606;2022-12-29T07:07:09;12.30;99.90
43581;DHT22;29175;51.030;4.606;2022-12-29T07:09:34;12.40;99.90
43581;DHT22;29175;51.030;4.606;2022-12-29T07:12:02;12.40;99.90
43581;DHT22;29175;51.030;4.606;2022-12-29T07:14:28;12.40;99.90
43581;DHT22;29175;51.030;4.606;2022-12-29T07:16:54;12.50;99.90
43581;DHT22;29175;51.030;4.606;2022-12-29T07:19:19;12.50;99.90
43581;DHT22;29175;51.030;4.606;2022-12-29T07:21:45;12.40;99.90
43581;DHT22;29175;51.030;4.606;2022-12-29T07:24:11;12.40;99.90
43581;DHT22;29175;51.030;4.606;2022-12-29T07:26:36;12.30;99.90
43581;DHT22;29175;51.030;4.606;2022-12-29T07:29:03;12.10;99.90
43581;DHT22;29175;51.030;4.606;2022-12-29T07:31:31;12.30;99.90
43581;DHT22;29175;51.030;4.606;2022-12-29T07:33:56;12.30;99.90
43581;DHT22;29175;51.030;4.606;2022-12-29T07:36:22;12.40;99.90
43581;DHT22;29175;51.030;4.606;2022-12-29T07:38:49;12.60;99.90
43581;DHT22;29175;51.030;4.606;2022-12-29T07:41:15;12.50;99.90
43581;DHT22;29175;51.030;4.606;2022-12-29T07:43:41;12.40;99.90
43581;DHT22;29175;51.030;4.606;2022-12-29T07:46:07;12.60;99.90
43581;DHT22;29175;51.030;4.606;2022-12-29T07:48:34;12.50;99.90
43581;DHT22;29175;51.030;4.606;2022-12-29T07:51:01;12.80;99.90
43581;DHT22;29175;51.030;4.606;2022-12-29T07:53:28;12.70;99.90
43581;DHT22;29175;51.030;4.606;2022-12-29T07:55:54;12.70;99.90
43581;DHT22;29175;51.030;4.606;2022-12-29T07:58:19;12.70;99.90
43581;DHT22;29175;51.030;4.606;2022-12-29T08:00:45;12.70;99.90
43581;DHT22;29175;51.030;4.606;2022-12-29T08:03:11;12.90;99.90
43581;DHT22;29175;51.030;4.606;2022-12-29T08:05:37;12.80;99.90
43581;DHT22;29175;51.030;4.606;2022-12-29T08:08:02;12.70;99.90
43581;DHT22;29175;51.030;4.606;2022-12-29T08:10:28;12.90;99.90
43581;DHT22;29175;51.030;4.606;2022-12-29T08:12:54;12.70;99.90
43581;DHT22;29175;51.030;4.606;2022-12-29T08:15:21;12.80;99.90
43581;DHT22;29175;51.030;4.606;2022-12-29T08:17:46;12.70;99.90
43581;DHT22;29175;51.030;4.606;2022-12-29T08:20:12;12.70;99.90
43581;DHT22;29175;51.030;4.606;2022-12-29T08:22:38;12.80;99.90
43581;DHT22;29175;51.030;4.606;2022-12-29T08:25:04;12.90;99.90
43581;DHT22;29175;51.030;4.606;2022-12-29T08:27:30;12.80;99.90
43581;DHT22;29175;51.030;4.606;2022-12-29T08:29:55;12.70;99.90
43581;DHT22;29175;51.030;4.606;2022-12-29T08:32:21;12.60;99.90
43581;DHT22;29175;51.030;4.606;2022-12-29T08:34:47;12.80;99.90
43581;DHT22;29175;51.030;4.606;2022-12-29T08:37:13;12.80;99.90
43581;DHT22;29175;51.030;4.606;2022-12-29T08:39:38;12.90;99.90
43581;DHT22;29175;51.030;4.606;2022-12-29T08:42:04;12.70;99.90
43581;DHT22;29175;51.030;4.606;2022-12-29T08:44:30;12.90;99.90
43581;DHT22;29175;51.030;4.606;2022-12-29T08:46:55;12.60;99.90
43581;DHT22;29175;51.030;4.606;2022-12-29T08:49:21;12.60;99.90
43581;DHT22;29175;51.030;4.606;2022-12-29T08:51:46;12.40;99.90
43581;DHT22;29175;51.030;4.606;2022-12-29T08:54:12;12.40;99.90
43581;DHT22;29175;51.030;4.606;2022-12-29T08:56:39;12.40;99.90
43581;DHT22;29175;51.030;4.606;2022-12-29T08:59:05;12.50;99.90
43581;DHT22;29175;51.030;4.606;2022-12-29T09:01:30;12.70;99.90
43581;DHT22;29175;51.030;4.606;2022-12-29T09:03:56;12.40;99.90
43581;DHT22;29175;51.030;4.606;2022-12-29T09:06:22;12.40;99.90
43581;DHT22;29175;51.030;4.606;2022-12-29T09:08:48;12.60;99.90
43581;DHT22;29175;51.030;4.606;2022-12-29T09:11:17;12.80;99.90
43581;DHT22;29175;51.030;4.606;2022-12-29T09:13:43;12.40;99.90
43581;DHT22;29175;51.030;4.606;2022-12-29T09:16:08;12.40;99.90
43581;DHT22;29175;51.030;4.606;2022-12-29T09:18:35;12.40;99.90
43581;DHT22;29175;51.030;4.606;2022-12-29T09:21:03;12.50;99.90
43581;DHT22;29175;51.030;4.606;2022-12-29T09:23:30;12.60;99.90
43581;DHT22;29175;51.030;4.606;2022-12-29T09:25:56;12.40;99.90
43581;DHT22;29175;51.030;4.606;2022-12-29T09:28:22;12.40;99.90
43581;DHT22;29175;51.030;4.606;2022-12-29T09:30:49;12.30;99.90
43581;DHT22;29175;51.030;4.606;2022-12-29T09:33:15;12.30;99.90
43581;DHT22;29175;51.030;4.606;2022-12-29T09:35:42;12.30;99.90
43581;DHT22;29175;51.030;4.606;2022-12-29T09:38:08;12.00;99.90
43581;DHT22;29175;51.030;4.606;2022-12-29T09:40:34;12.30;99.90
43581;DHT22;29175;51.030;4.606;2022-12-29T09:49:38;12.30;99.90
43581;DHT22;29175;51.030;4.606;2022-12-29T09:51:43;12.60;99.90
43581;DHT22;29175;51.030;4.606;2022-12-29T09:54:34;12.50;99.90
43581;DHT22;29175;51.030;4.606;2022-12-29T09:57:02;12.50;99.90
43581;DHT22;29175;51.030;4.606;2022-12-29T09:59:39;12.40;99.90
43581;DHT22;29175;51.030;4.606;2022-12-29T10:04:47;12.60;99.90
43581;DHT22;29175;51.030;4.606;2022-12-29T10:07:36;12.60;99.90
43581;DHT22;29175;51.030;4.606;2022-12-29T10:23:50;12.90;99.90
43581;DHT22;29175;51.030;4.606;2022-12-29T10:26:17;12.80;99.90
43581;DHT22;29175;51.030;4.606;2022-12-29T10:28:51;12.80;99.90
43581;DHT22;29175;51.030;4.606;2022-12-29T10:31:23;12.90;99.90
43581;DHT22;29175;51.030;4.606;2022-12-29T10:33:57;13.10;99.90
43581;DHT22;29175;51.030;4.606;2022-12-29T10:36:48;13.30;99.90
43581;DHT22;29175;51.030;4.606;2022-12-29T10:39:25;13.30;99.90
43581;DHT22;29175;51.030;4.606;2022-12-29T10:44:29;13.30;99.90
43581;DHT22;29175;51.030;4.606;2022-12-29T10:46:59;13.00;99.90
43581;DHT22;29175;51.030;4.606;2022-12-29T10:49:28;13.00;99.90
43581;DHT22;29175;51.030;4.606;2022-12-29T10:51:57;13.10;99.90
43581;DHT22;29175;51.030;4.606;2022-12-29T10:54:32;13.30;99.90
43581;DHT22;29175;51.030;4.606;2022-12-29T10:57:08;13.20;99.90
43581;DHT22;29175;51.030;4.606;2022-12-29T10:59:36;13.60;99.90
43581;DHT22;29175;51.030;4.606;2022-12-29T11:02:18;13.90;99.90
43581;DHT22;29175;51.030;4.606;2022-12-29T11:05:28;14.20;99.90
43581;DHT22;29175;51.030;4.606;2022-12-29T11:08:01;14.20;99.90
43581;DHT22;29175;51.030;4.606;2022-12-29T11:10:46;13.80;99.90
43581;DHT22;29175;51.030;4.606;2022-12-29T11:13:13;13.60;99.90
43581;DHT22;29175;51.030;4.606;2022-12-29T11:15:45;13.80;99.90
43581;DHT22;29175;51.030;4.606;2022-12-29T11:18:30;13.70;99.90
43581;DHT22;29175;51.030;4.606;2022-12-29T11:20:59;13.70;99.90
43581;DHT22;29175;51.030;4.606;2022-12-29T11:23:31;13.70;99.90
43581;DHT22;29175;51.030;4.606;2022-12-29T11:26:20;13.40;99.90
43581;DHT22;29175;51.030;4.606;2022-12-29T11:31:55;13.50;99.90
43581;DHT22;29175;51.030;4.606;2022-12-29T11:34:26;13.10;99.90
43581;DHT22;29175;51.030;4.606;2022-12-29T11:37:13;13.30;99.90
43581;DHT22;29175;51.030;4.606;2022-12-29T11:42:22;12.80;99.90
43581;DHT22;29175;51.030;4.606;2022-12-29T11:44:49;12.80;99.90
43581;DHT22;29175;51.030;4.606;2022-12-29T11:47:28;13.00;99.90
43581;DHT22;29175;51.030;4.606;2022-12-29T11:50:05;13.10;99.90
43581;DHT22;29175;51.030;4.606;2022-12-29T11:52:36;13.30;99.90
43581;DHT22;29175;51.030;4.606;2022-12-29T11:55:13;13.00;99.90
43581;DHT22;29175;51.030;4.606;2022-12-29T11:57:42;13.20;99.90
43581;DHT22;29175;51.030;4.606;2022-12-29T12:07:50;12.90;99.90
43581;DHT22;29175;51.030;4.606;2022-12-29T12:10:24;12.90;99.90
43581;DHT22;29175;51.030;4.606;2022-12-29T12:16:09;12.80;99.90
43581;DHT22;29175;51.030;4.606;2022-12-29T12:19:04;12.80;99.90
43581;DHT22;29175;51.030;4.606;2022-12-29T12:21:41;13.00;99.90
43581;DHT22;29175;51.030;4.606;2022-12-29T12:27:02;12.80;99.90
43581;DHT22;29175;51.030;4.606;2022-12-29T12:29:50;12.90;99.90
43581;DHT22;29175;51.030;4.606;2022-12-29T12:32:27;12.90;99.90
43581;DHT22;29175;51.030;4.606;2022-12-29T12:34:55;13.10;99.90
43581;DHT22;29175;51.030;4.606;2022-12-29T12:40:20;12.90;99.90
43581;DHT22;29175;51.030;4.606;2022-12-29T12:58:59;13.00;99.90
43581;DHT22;29175;51.030;4.606;2022-12-29T13:04:28;12.70;99.90
43581;DHT22;29175;51.030;4.606;2022-12-29T13:09:44;12.90;99.90
43581;DHT22;29175;51.030;4.606;2022-12-29T13:12:57;13.10;99.90
43581;DHT22;29175;51.030;4.606;2022-12-29T13:18:33;13.10;99.90
43581;DHT22;29175;51.030;4.606;2022-12-29T13:23:57;12.80;99.90
43581;DHT22;29175;51.030;4.606;2022-12-29T13:26:39;12.70;99.90
43581;DHT22;29175;51.030;4.606;2022-12-29T13:29:30;12.40;99.90
43581;DHT22;29175;51.030;4.606;2022-12-29T13:38:39;12.80;99.90
43581;DHT22;29175;51.030;4.606;2022-12-29T13:41:09;12.70;99.90
43581;DHT22;29175;51.030;4.606;2022-12-29T13:43:39;12.90;99.90
43581;DHT22;29175;51.030;4.606;2022-12-29T13:46:20;12.80;99.90
43581;DHT22;29175;51.030;4.606;2022-12-29T13:52:15;12.50;99.90
43581;DHT22;29175;51.030;4.606;2022-12-29T13:54:57;12.60;99.90
43581;DHT22;29175;51.030;4.606;2022-12-29T14:00:23;13.00;99.90
43581;DHT22;29175;51.030;4.606;2022-12-29T14:05:37;13.10;99.90
43581;DHT22;29175;51.030;4.606;2022-12-29T14:08:05;13.20;99.90
43581;DHT22;29175;51.030;4.606;2022-12-29T14:10:37;13.00;99.90
43581;DHT22;29175;51.030;4.606;2022-12-29T14:15:43;12.90;99.90
43581;DHT22;29175;51.030;4.606;2022-12-29T14:18:24;12.60;99.90
43581;DHT22;29175;51.030;4.606;2022-12-29T14:23:43;12.90;99.90
43581;DHT22;29175;51.030;4.606;2022-12-29T14:28:45;12.70;99.90
43581;DHT22;29175;51.030;4.606;2022-12-29T14:33:41;12.60;99.90
43581;DHT22;29175;51.030;4.606;2022-12-29T14:36:36;12.50;99.90
43581;DHT22;29175;51.030;4.606;2022-12-29T14:42:06;12.10;99.90
43581;DHT22;29175;51.030;4.606;2022-12-29T14:44:51;11.80;99.90
43581;DHT22;29175;51.030;4.606;2022-12-29T14:49:57;11.50;99.90
43581;DHT22;29175;51.030;4.606;2022-12-29T14:52:28;11.30;99.90
43581;DHT22;29175;51.030;4.606;2022-12-29T14:54:56;11.30;99.90
43581;DHT22;29175;51.030;4.606;2022-12-29T14:57:27;10.80;99.90
43581;DHT22;29175;51.030;4.606;2022-12-29T15:00:03;10.60;99.90
43581;DHT22;29175;51.030;4.606;2022-12-29T15:02:35;10.50;99.90
43581;DHT22;29175;51.030;4.606;2022-12-29T15:05:05;10.50;99.90
43581;DHT22;29175;51.030;4.606;2022-12-29T15:07:32;10.50;99.90
43581;DHT22;29175;51.030;4.606;2022-12-29T15:10:06;10.70;99.90
43581;DHT22;29175;51.030;4.606;2022-12-29T15:12:37;10.60;99.90
43581;DHT22;29175;51.030;4.606;2022-12-29T15:15:37;10.70;99.90
43581;DHT22;29175;51.030;4.606;2022-12-29T15:18:35;10.80;99.90
43581;DHT22;29175;51.030;4.606;2022-12-29T15:21:05;10.80;99.90
43581;DHT22;29175;51.030;4.606;2022-12-29T15:23:33;11.00;99.90
43581;DHT22;29175;51.030;4.606;2022-12-29T15:26:04;10.70;99.90
43581;DHT22;29175;51.030;4.606;2022-12-29T15:28:37;10.70;99.90
43581;DHT22;29175;51.030;4.606;2022-12-29T15:31:06;10.40;99.90
43581;DHT22;29175;51.030;4.606;2022-12-29T15:33:38;10.30;99.90
43581;DHT22;29175;51.030;4.606;2022-12-29T15:36:26;10.10;99.90
43581;DHT22;29175;51.030;4.606;2022-12-29T15:38:54;10.10;99.90
43581;DHT22;29175;51.030;4.606;2022-12-29T15:41:43;10.10;99.90
43581;DHT22;29175;51.030;4.606;2022-12-29T15:44:40;10.10;99.90
43581;DHT22;29175;51.030;4.606;2022-12-29T15:47:15;10.20;99.90
43581;DHT22;29175;51.030;4.606;2022-12-29T15:49:48;10.10;99.90
43581;DHT22;29175;51.030;4.606;2022-12-29T15:52:20;9.90;99.90
43581;DHT22;29175;51.030;4.606;2022-12-29T15:54:51;10.00;99.90
43581;DHT22;29175;51.030;4.606;2022-12-29T15:57:42;9.90;99.90
43581;DHT22;29175;51.030;4.606;2022-12-29T16:00:31;10.10;99.90
43581;DHT22;29175;51.030;4.606;2022-12-29T16:03:00;10.10;99.90
43581;DHT22;29175;51.030;4.606;2022-12-29T16:05:38;10.20;99.90
43581;DHT22;29175;51.030;4.606;2022-12-29T16:08:34;10.20;99.90
43581;DHT22;29175;51.030;4.606;2022-12-29T16:13:52;10.10;99.90
43581;DHT22;29175;51.030;4.606;2022-12-29T16:16:33;10.00;99.90
43581;DHT22;29175;51.030;4.606;2022-12-29T16:19:04;10.00;99.90
43581;DHT22;29175;51.030;4.606;2022-12-29T16:21:35;10.00;99.90
43581;DHT22;29175;51.030;4.606;2022-12-29T16:24:13;9.90;99.90
43581;DHT22;29175;51.030;4.606;2022-12-29T16:26:54;9.90;99.90
43581;DHT22;29175;51.030;4.606;2022-12-29T16:29:22;9.90;99.90
43581;DHT22;29175;51.030;4.606;2022-12-29T16:31:54;9.80;99.90
43581;DHT22;29175;51.030;4.606;2022-12-29T16:37:30;10.20;99.90
43581;DHT22;29175;51.030;4.606;2022-12-29T16:40:01;10.10;99.90
43581;DHT22;29175;51.030;4.606;2022-12-29T16:50:44;9.90;99.90
43581;DHT22;29175;51.030;4.606;2022-12-29T16:53:20;10.00;99.90
43581;DHT22;29175;51.030;4.606;2022-12-29T16:55:48;10.00;99.90
43581;DHT22;29175;51.030;4.606;2022-12-29T16:58:24;10.00;99.90
43581;DHT22;29175;51.030;4.606;2022-12-29T17:00:56;10.00;99.90
43581;DHT22;29175;51.030;4.606;2022-12-29T17:03:26;10.10;99.90
43581;DHT22;29175;51.030;4.606;2022-12-29T17:05:54;10.10;99.90
43581;DHT22;29175;51.030;4.606;2022-12-29T17:08:21;10.00;99.90
43581;DHT22;29175;51.030;4.606;2022-12-29T17:10:53;10.00;99.90
43581;DHT22;29175;51.030;4.606;2022-12-29T17:13:38;9.80;99.90
43581;DHT22;29175;51.030;4.606;2022-12-29T17:16:06;9.70;99.90
43581;DHT22;29175;51.030;4.606;2022-12-29T17:18:33;9.60;99.90
43581;DHT22;29175;51.030;4.606;2022-12-29T17:20:59;9.60;99.90
43581;DHT22;29175;51.030;4.606;2022-12-29T17:23:25;9.70;99.90
43581;DHT22;29175;51.030;4.606;2022-12-29T17:25:52;9.60;99.90
43581;DHT22;29175;51.030;4.606;2022-12-29T17:30:49;9.80;99.90
43581;DHT22;29175;51.030;4.606;2022-12-29T17:33:19;9.70;99.90
43581;DHT22;29175;51.030;4.606;2022-12-29T17:35:45;9.80;99.90
43581;DHT22;29175;51.030;4.606;2022-12-29T17:38:41;9.70;99.90
43581;DHT22;29175;51.030;4.606;2022-12-29T17:41:13;9.90;99.90
43581;DHT22;29175;51.030;4.606;2022-12-29T17:43:39;10.10;99.90
43581;DHT22;29175;51.030;4.606;2022-12-29T17:46:06;10.00;99.90
43581;DHT22;29175;51.030;4.606;2022-12-29T17:48:32;9.80;99.90
43581;DHT22;29175;51.030;4.606;2022-12-29T17:50:58;10.00;99.90
43581;DHT22;29175;51.030;4.606;2022-12-29T17:53:28;10.00;99.90
43581;DHT22;29175;51.030;4.606;2022-12-29T17:55:54;9.90;99.90
43581;DHT22;29175;51.030;4.606;2022-12-29T17:58:27;9.80;99.90
43581;DHT22;29175;51.030;4.606;2022-12-29T18:00:58;10.00;99.90
43581;DHT22;29175;51.030;4.606;2022-12-29T18:03:28;9.90;99.90
43581;DHT22;29175;51.030;4.606;2022-12-29T18:05:54;9.80;99.90
43581;DHT22;29175;51.030;4.606;2022-12-29T18:08:20;9.70;99.90
43581;DHT22;29175;51.030;4.606;2022-12-29T18:10:46;9.90;99.90
43581;DHT22;29175;51.030;4.606;2022-12-29T18:13:21;9.90;99.90
43581;DHT22;29175;51.030;4.606;2022-12-29T18:15:48;9.90;99.90
43581;DHT22;29175;51.030;4.606;2022-12-29T18:18:20;9.80;99.90
43581;DHT22;29175;51.030;4.606;2022-12-29T18:20:47;9.90;99.90
43581;DHT22;29175;51.030;4.606;2022-12-29T18:23:25;9.90;99.90
43581;DHT22;29175;51.030;4.606;2022-12-29T18:28:16;9.90;99.90
43581;DHT22;29175;51.030;4.606;2022-12-29T18:30:44;10.10;99.90
43581;DHT22;29175;51.030;4.606;2022-12-29T18:33:20;9.90;99.90
43581;DHT22;29175;51.030;4.606;2022-12-29T18:35:52;10.00;99.90